Time;durP1;ratioP1;P1;durP2;ratioP2;P2;SDS_P1;SDS_P2;PMS_P1;PMS_P2;Temp;Humidity;BMP_temperature;BMP_pressure;BME280_temperature;BME280_humidity;BME280_pressure;Samples;Min_cycle;Max_cycle;Signal;HPM_P1;HPM_P2
2023/02/04 00:01:52;;;;;;;3.03;2.72;;;13.00;62.40;;;;;;5041697;28;20044;-76
2023/02/04 00:04:18;;;;;;;2.75;2.55;;;13.00;62.50;;;;;;5043424;28;20029;-76
2023/02/04 00:06:44;;;;;;;3.08;2.78;;;13.00;62.40;;;;;;5042531;28;20037;-76
2023/02/04 00:09:10;;;;;;;2.60;2.22;;;13.00;62.40;;;;;;5042676;28;20032;-76
2023/02/04 00:11:36;;;;;;;2.85;2.55;;;12.90;62.40;;;;;;5043025;28;20447;-76
2023/02/04 00:14:02;;;;;;;3.55;2.63;;;13.00;62.50;;;;;;5040686;28;20029;-76
2023/02/04 00:16:28;;;;;;;3.85;2.90;;;12.90;62.50;;;;;;5041723;28;20025;-75
2023/02/04 00:18:54;;;;;;;3.33;3.00;;;12.90;62.30;;;;;;5042873;28;20032;-75
2023/02/04 00:21:20;;;;;;;3.03;2.65;;;12.90;62.20;;;;;;5040682;28;20024;-76
2023/02/04 00:23:46;;;;;;;3.03;2.53;;;12.90;62.20;;;;;;5044899;28;20068;-75
2023/02/04 00:26:12;;;;;;;3.35;2.63;;;12.90;62.20;;;;;;5040862;28;20033;-76
2023/02/04 00:28:39;;;;;;;3.05;2.75;;;12.90;62.10;;;;;;5042127;28;20033;-77
2023/02/04 00:31:05;;;;;;;4.13;2.92;;;12.90;62.10;;;;;;5029260;28;20079;-77
2023/02/04 00:33:32;;;;;;;2.90;2.60;;;12.90;62.00;;;;;;5042394;28;20029;-75
2023/02/04 00:35:58;;;;;;;3.15;2.88;;;12.90;62.00;;;;;;5042087;28;20462;-75
2023/02/04 00:38:24;;;;;;;3.00;2.58;;;12.80;62.00;;;;;;5045664;28;20041;-76
2023/02/04 00:40:50;;;;;;;3.28;2.97;;;12.80;62.00;;;;;;5041185;28;20033;-77
2023/02/04 00:43:17;;;;;;;4.18;2.65;;;12.80;62.00;;;;;;5041324;28;20021;-76
2023/02/04 00:45:44;;;;;;;3.42;3.13;;;12.80;62.10;;;;;;5044149;28;20033;-77
2023/02/04 00:48:10;;;;;;;3.15;2.85;;;12.80;62.70;;;;;;5028387;28;20036;-76
2023/02/04 00:50:38;;;;;;;3.05;2.70;;;12.80;62.20;;;;;;5027816;28;20067;-76
2023/02/04 00:53:05;;;;;;;3.20;2.90;;;12.80;62.20;;;;;;5045332;28;20447;-75
2023/02/04 00:55:31;;;;;;;2.97;2.67;;;12.80;62.30;;;;;;5043014;28;20033;-75
2023/02/04 00:57:58;;;;;;;3.97;3.25;;;12.80;62.40;;;;;;5039097;28;20068;-76
2023/02/04 01:00:24;;;;;;;3.13;2.83;;;12.80;62.20;;;;;;5043874;28;20207;-76
2023/02/04 01:02:50;;;;;;;3.40;2.90;;;12.70;62.10;;;;;;5040476;28;20029;-75
2023/02/04 01:05:16;;;;;;;3.20;2.90;;;12.80;62.00;;;;;;5040769;28;20041;-76
2023/02/04 01:07:43;;;;;;;3.70;2.80;;;12.70;62.00;;;;;;5041056;28;20037;-77
2023/02/04 01:10:09;;;;;;;3.95;3.00;;;12.70;62.00;;;;;;5041107;28;20059;-77
2023/02/04 01:12:35;;;;;;;3.70;2.88;;;12.70;62.10;;;;;;5043386;28;20098;-76
2023/02/04 01:15:01;;;;;;;3.85;3.03;;;12.70;62.10;;;;;;5058984;28;20029;-78
2023/02/04 01:17:27;;;;;;;3.80;2.88;;;12.70;62.20;;;;;;5040772;28;20021;-76
2023/02/04 01:19:53;;;;;;;4.10;2.90;;;12.70;62.20;;;;;;5027767;28;20040;-76
2023/02/04 01:22:19;;;;;;;4.72;3.28;;;12.70;62.20;;;;;;5040456;28;20029;-76
2023/02/04 01:24:47;;;;;;;3.58;3.13;;;12.70;62.10;;;;;;5041358;28;20084;-77
2023/02/04 01:27:32;;;;;;;4.43;3.15;;;12.70;62.10;;;;;;5043194;28;20039;-77
2023/02/04 01:29:58;;;;;;;4.00;2.92;;;12.70;62.10;;;;;;5040173;28;20746;-77
2023/02/04 01:32:24;;;;;;;4.32;3.08;;;12.70;62.20;;;;;;5039684;28;20454;-77
2023/02/04 01:34:51;;;;;;;4.93;3.42;;;12.70;62.20;;;;;;5044474;28;20025;-77
2023/02/04 01:37:17;;;;;;;3.35;3.00;;;12.60;62.10;;;;;;5043002;28;20565;-76
2023/02/04 01:39:43;;;;;;;4.25;3.30;;;12.60;62.10;;;;;;5044485;28;20119;-76
2023/02/04 01:42:10;;;;;;;7.00;4.03;;;12.60;62.20;;;;;;5044750;28;20144;-77
2023/02/04 01:44:36;;;;;;;4.45;3.80;;;12.60;62.20;;;;;;5042620;28;20150;-76
2023/02/04 01:47:02;;;;;;;6.30;4.00;;;12.60;62.20;;;;;;5044470;28;20147;-76
2023/02/04 01:49:28;;;;;;;4.50;3.80;;;12.60;62.10;;;;;;5043486;28;20587;-77
2023/02/04 01:51:55;;;;;;;4.55;3.42;;;12.60;62.10;;;;;;5027216;28;20063;-76
2023/02/04 01:54:21;;;;;;;4.88;4.10;;;12.60;62.20;;;;;;5043991;28;20111;-76
2023/02/04 01:56:50;;;;;;;5.57;4.97;;;12.60;62.30;;;;;;5041805;28;20040;-76
2023/02/04 01:59:18;;;;;;;6.18;4.55;;;12.60;62.30;;;;;;5042461;28;20043;-76
2023/02/04 02:01:51;;;;;;;7.10;4.68;;;12.60;62.30;;;;;;5041570;28;20029;-76
2023/02/04 02:04:24;;;;;;;5.43;4.68;;;12.60;62.30;;;;;;5043681;28;20500;-76
2023/02/04 02:06:58;;;;;;;7.72;4.93;;;12.60;62.40;;;;;;5042701;28;20127;-76
2023/02/04 02:09:26;;;;;;;7.63;4.60;;;12.60;62.30;;;;;;5043429;28;20037;-76
2023/02/04 02:11:53;;;;;;;6.25;4.68;;;12.60;62.30;;;;;;5043299;28;20048;-76
2023/02/04 02:14:19;;;;;;;5.47;4.78;;;12.60;62.20;;;;;;5026212;28;20036;-77
2023/02/04 02:16:45;;;;;;;5.15;4.45;;;12.60;62.20;;;;;;5043043;28;20033;-76
2023/02/04 02:19:27;;;;;;;5.40;4.30;;;12.60;62.10;;;;;;5044555;28;20052;-77
2023/02/04 02:22:04;;;;;;;5.10;4.10;;;12.60;62.10;;;;;;5044374;28;20036;-76
2023/02/04 02:24:32;;;;;;;4.97;3.95;;;12.50;62.30;;;;;;5043814;28;20032;-76
2023/02/04 02:27:03;;;;;;;5.93;4.60;;;12.60;62.30;;;;;;5043667;28;20064;-77
2023/02/04 02:29:29;;;;;;;6.63;4.30;;;12.50;62.40;;;;;;5026054;28;20032;-78
2023/02/04 02:31:57;;;;;;;6.45;4.60;;;12.50;62.40;;;;;;5043041;28;20033;-76
2023/02/04 02:34:29;;;;;;;6.00;4.30;;;12.50;62.50;;;;;;5041623;28;20033;-77
2023/02/04 02:36:56;;;;;;;5.05;4.32;;;12.50;62.40;;;;;;5041506;28;20068;-76
2023/02/04 02:39:23;;;;;;;5.80;4.25;;;12.50;62.30;;;;;;5043775;28;20132;-77
2023/02/04 02:41:49;;;;;;;6.97;4.70;;;12.50;62.40;;;;;;5039498;28;20124;-77
2023/02/04 02:44:16;;;;;;;4.78;4.25;;;12.50;62.20;;;;;;5042614;28;20481;-76
2023/02/04 02:46:43;;;;;;;5.13;4.45;;;12.50;62.30;;;;;;5039394;28;20068;-77
2023/02/04 02:49:16;;;;;;;5.82;4.18;;;12.50;62.30;;;;;;5038282;28;20457;-78
2023/02/04 02:51:43;;;;;;;6.03;4.00;;;12.50;62.20;;;;;;5042957;28;20470;-77
2023/02/04 02:54:25;;;;;;;5.28;4.38;;;12.50;62.20;;;;;;5040203;28;20044;-77
2023/02/04 02:56:55;;;;;;;4.80;4.03;;;12.50;62.30;;;;;;5026801;28;20116;-77
2023/02/04 02:59:23;;;;;;;7.00;4.50;;;12.50;62.10;;;;;;5054952;28;20033;-77
2023/02/04 03:01:56;;;;;;;4.80;4.03;;;12.50;62.00;;;;;;5022920;28;20071;-77
2023/02/04 03:04:25;;;;;;;4.70;4.20;;;12.50;62.00;;;;;;5044206;28;20116;-77
2023/02/04 03:06:53;;;;;;;6.20;4.00;;;12.50;62.10;;;;;;5044811;28;20028;-76
2023/02/04 03:09:19;;;;;;;5.45;4.20;;;12.50;62.10;;;;;;5031255;28;20511;-76
2023/02/04 03:11:47;;;;;;;6.35;4.03;;;12.50;61.90;;;;;;5042395;28;20060;-76
2023/02/04 03:14:14;;;;;;;4.38;3.88;;;12.50;62.00;;;;;;5041332;28;20425;-79
2023/02/04 03:16:40;;;;;;;4.30;3.90;;;12.50;62.00;;;;;;5026120;28;20499;-76
2023/02/04 03:19:07;;;;;;;4.85;4.20;;;12.50;61.90;;;;;;5043046;28;20048;-76
2023/02/04 03:21:34;;;;;;;4.10;3.70;;;12.50;62.00;;;;;;5044982;28;20033;-78
2023/02/04 03:24:02;;;;;;;5.85;4.35;;;12.50;61.90;;;;;;5044721;28;20036;-77
2023/02/04 03:26:29;;;;;;;7.13;4.10;;;12.50;61.70;;;;;;5045911;28;20040;-76
2023/02/04 03:28:55;;;;;;;4.40;3.80;;;12.50;61.60;;;;;;5045914;28;21490;-76
2023/02/04 03:31:23;;;;;;;4.85;4.35;;;12.50;61.60;;;;;;5029682;28;20404;-78
2023/02/04 03:33:49;;;;;;;4.90;4.00;;;12.40;61.60;;;;;;5030709;28;20037;-76
2023/02/04 03:36:16;;;;;;;5.82;4.38;;;12.40;61.70;;;;;;5043315;28;20041;-75
2023/02/04 03:38:42;;;;;;;4.65;4.03;;;12.50;61.80;;;;;;5058061;28;20024;-75
2023/02/04 03:41:08;;;;;;;5.55;4.13;;;12.40;61.90;;;;;;5045662;28;20032;-75
2023/02/04 03:43:34;;;;;;;6.05;4.32;;;12.40;61.80;;;;;;5042584;28;20418;-76
2023/02/04 03:45:59;;;;;;;5.90;4.30;;;12.40;61.80;;;;;;5043249;28;20045;-75
2023/02/04 03:48:25;;;;;;;6.60;4.20;;;12.40;61.70;;;;;;5042625;28;20431;-76
2023/02/04 03:50:51;;;;;;;5.43;4.43;;;12.40;61.70;;;;;;5040679;28;20037;-76
2023/02/04 03:53:17;;;;;;;7.05;4.22;;;12.40;61.60;;;;;;5045390;28;20103;-75
2023/02/04 03:55:43;;;;;;;6.43;4.30;;;12.40;61.60;;;;;;5040988;28;20034;-76
2023/02/04 03:58:09;;;;;;;7.65;4.93;;;12.40;61.60;;;;;;5042500;28;20037;-76
2023/02/04 04:00:35;;;;;;;5.82;4.30;;;12.40;61.50;;;;;;5041141;28;20045;-75
2023/02/04 04:03:01;;;;;;;4.53;3.80;;;12.40;61.50;;;;;;5044478;28;20037;-77
2023/02/04 04:05:27;;;;;;;6.57;4.53;;;12.40;61.50;;;;;;5041798;28;20091;-76
2023/02/04 04:07:53;;;;;;;5.93;4.18;;;12.40;61.50;;;;;;5042666;28;20044;-76
2023/02/04 04:10:19;;;;;;;5.75;4.57;;;12.40;61.40;;;;;;5042055;28;20025;-76
2023/02/04 04:12:45;;;;;;;4.90;4.18;;;12.40;61.50;;;;;;5044127;28;20120;-76
2023/02/04 04:15:12;;;;;;;7.00;4.40;;;12.40;61.50;;;;;;5043210;28;20028;-76
2023/02/04 04:17:38;;;;;;;5.03;4.20;;;12.40;61.60;;;;;;5045328;28;20064;-76
2023/02/04 04:20:05;;;;;;;6.72;4.20;;;12.40;61.50;;;;;;5041465;28;20068;-76
2023/02/04 04:22:31;;;;;;;5.90;4.18;;;12.40;61.50;;;;;;5043331;28;20032;-76
2023/02/04 04:24:57;;;;;;;5.90;4.22;;;12.40;61.40;;;;;;5013501;28;20029;-76
2023/02/04 04:27:23;;;;;;;5.18;4.50;;;12.30;61.50;;;;;;5013842;28;20029;-77
2023/02/04 04:29:48;;;;;;;5.32;4.35;;;12.40;61.30;;;;;;5039908;28;20054;-77
2023/02/04 04:32:14;;;;;;;4.88;4.10;;;12.40;61.30;;;;;;5046566;28;20052;-76
2023/02/04 04:34:40;;;;;;;6.22;4.03;;;12.40;61.30;;;;;;5042226;28;20021;-76
2023/02/04 04:37:06;;;;;;;6.30;4.07;;;12.40;61.20;;;;;;5046213;28;20033;-77
2023/02/04 04:39:32;;;;;;;6.32;4.40;;;12.40;61.10;;;;;;5042112;28;20033;-76
2023/02/04 04:41:58;;;;;;;5.65;4.53;;;12.40;61.10;;;;;;5041894;28;20033;-76
2023/02/04 04:44:24;;;;;;;6.93;4.78;;;12.40;61.10;;;;;;5041783;28;20087;-76
2023/02/04 04:46:50;;;;;;;6.13;4.38;;;12.40;61.20;;;;;;5046494;28;20033;-76
2023/02/04 04:49:16;;;;;;;6.03;4.43;;;12.40;61.20;;;;;;5041107;28;20072;-76
2023/02/04 04:51:42;;;;;;;6.60;4.03;;;12.40;61.10;;;;;;5043836;28;20028;-77
2023/02/04 04:54:08;;;;;;;5.18;4.50;;;12.40;61.10;;;;;;5044620;28;20032;-77
2023/02/04 04:56:34;;;;;;;5.75;4.43;;;12.40;61.10;;;;;;5039825;28;20032;-77
2023/02/04 04:59:00;;;;;;;5.13;4.15;;;12.40;61.10;;;;;;5041434;28;20055;-77
2023/02/04 05:01:26;;;;;;;7.32;4.85;;;12.30;60.90;;;;;;5040591;28;20036;-76
2023/02/04 05:03:52;;;;;;;6.43;4.25;;;12.30;60.90;;;;;;5042019;28;20029;-79
2023/02/04 05:06:24;;;;;;;6.40;4.10;;;12.30;60.80;;;;;;5027868;28;20512;-77
2023/02/04 05:08:53;;;;;;;7.03;4.45;;;12.30;60.70;;;;;;5039923;28;20040;-78
2023/02/04 05:11:19;;;;;;;5.32;4.10;;;12.30;60.60;;;;;;5027727;28;20040;-78
2023/02/04 05:13:45;;;;;;;6.45;4.63;;;12.30;60.50;;;;;;5040925;28;20140;-78
2023/02/04 05:16:12;;;;;;;5.75;4.60;;;12.30;60.50;;;;;;5043761;28;20033;-77
2023/02/04 05:18:41;;;;;;;5.05;4.15;;;12.30;60.40;;;;;;5044701;28;20033;-76
2023/02/04 05:21:07;;;;;;;4.97;4.32;;;12.30;60.30;;;;;;5040410;28;20037;-76
2023/02/04 05:23:33;;;;;;;5.55;4.25;;;12.30;60.30;;;;;;5043944;28;20491;-75
2023/02/04 05:25:59;;;;;;;6.57;4.55;;;12.30;60.40;;;;;;5044772;28;20032;-76
2023/02/04 05:28:25;;;;;;;6.03;4.25;;;12.30;60.50;;;;;;5043874;28;20040;-76
2023/02/04 05:30:51;;;;;;;5.95;4.05;;;12.30;60.40;;;;;;5042818;28;20035;-76
2023/02/04 05:33:17;;;;;;;6.32;4.60;;;12.30;60.40;;;;;;5044887;28;20037;-76
2023/02/04 05:35:43;;;;;;;4.80;3.78;;;12.30;60.30;;;;;;5044412;28;20569;-77
2023/02/04 05:38:09;;;;;;;5.53;3.97;;;12.30;60.30;;;;;;5042777;28;20106;-77
2023/02/04 05:40:35;;;;;;;4.60;3.67;;;12.30;60.30;;;;;;5044221;28;21560;-77
2023/02/04 05:43:01;;;;;;;10.77;4.15;;;12.30;60.40;;;;;;5044136;28;20033;-78
2023/02/04 05:45:27;;;;;;;7.07;3.83;;;12.30;60.20;;;;;;5026824;28;20030;-77
2023/02/04 05:47:53;;;;;;;7.65;3.53;;;12.30;60.30;;;;;;5045150;28;20078;-78
2023/02/04 05:50:19;;;;;;;8.02;3.83;;;12.30;60.30;;;;;;5041398;28;20071;-78
2023/02/04 05:52:45;;;;;;;6.32;4.18;;;12.30;60.30;;;;;;5044129;28;20028;-78
2023/02/04 05:55:12;;;;;;;7.75;4.28;;;12.30;60.60;;;;;;5044489;28;20077;-78
2023/02/04 05:57:41;;;;;;;8.00;4.45;;;12.30;60.60;;;;;;5042413;28;20037;-78
2023/02/04 06:00:10;;;;;;;5.70;3.85;;;12.30;60.50;;;;;;5043066;28;20044;-79
2023/02/04 06:02:39;;;;;;;5.50;4.30;;;12.30;60.50;;;;;;5043170;28;20078;-76
2023/02/04 06:05:05;;;;;;;5.00;3.97;;;12.30;60.50;;;;;;5044009;28;20060;-76
2023/02/04 06:07:31;;;;;;;6.72;4.60;;;12.30;60.30;;;;;;5044710;28;20740;-75
2023/02/04 06:09:58;;;;;;;10.95;4.82;;;12.30;60.30;;;;;;5042139;28;20396;-77
2023/02/04 06:12:24;;;;;;;8.60;4.60;;;12.30;60.20;;;;;;5043650;28;20037;-77
2023/02/04 06:14:50;;;;;;;6.55;4.13;;;12.30;60.10;;;;;;5043173;28;20040;-77
2023/02/04 06:17:16;;;;;;;6.25;4.25;;;12.30;60.00;;;;;;5040660;28;20036;-77
2023/02/04 06:19:41;;;;;;;5.75;4.35;;;12.30;60.00;;;;;;5039888;28;20033;-77
2023/02/04 06:22:07;;;;;;;6.30;4.03;;;12.30;60.00;;;;;;5042442;28;20094;-75
2023/02/04 06:24:33;;;;;;;5.22;4.00;;;12.30;60.10;;;;;;5043718;28;20036;-76
2023/02/04 06:26:59;;;;;;;6.57;4.43;;;12.30;60.00;;;;;;5048830;28;20100;-78
2023/02/04 06:29:28;;;;;;;5.57;4.10;;;12.30;59.90;;;;;;5046225;28;20037;-76
2023/02/04 06:31:54;;;;;;;5.00;4.22;;;12.30;60.00;;;;;;5030401;28;20261;-76
2023/02/04 06:34:19;;;;;;;7.10;4.45;;;12.30;60.00;;;;;;5046055;28;20552;-79
2023/02/04 06:36:45;;;;;;;5.95;4.22;;;12.30;60.10;;;;;;5030777;28;20499;-84
2023/02/04 06:39:11;;;;;;;4.72;4.20;;;12.30;60.00;;;;;;5053815;28;20067;-81
2023/02/04 06:41:37;;;;;;;6.43;4.30;;;12.30;60.00;;;;;;5050400;28;20495;-86
2023/02/04 06:44:03;;;;;;;5.47;4.03;;;12.30;60.00;;;;;;5049011;28;20512;-86
2023/02/04 06:46:29;;;;;;;7.40;4.10;;;12.30;60.00;;;;;;5047290;28;20079;-86
2023/02/04 06:48:55;;;;;;;6.63;4.10;;;12.30;60.00;;;;;;5032046;28;20033;-85
2023/02/04 06:51:21;;;;;;;5.57;4.07;;;12.30;60.10;;;;;;5033468;28;20041;-86
2023/02/04 06:53:47;;;;;;;5.97;3.90;;;12.30;60.10;;;;;;5028039;28;20032;-84
2023/02/04 06:56:13;;;;;;;5.47;4.28;;;12.30;60.00;;;;;;5044381;28;20025;-83
2023/02/04 06:58:39;;;;;;;5.07;3.85;;;12.30;60.10;;;;;;5031328;28;20036;-85
2023/02/04 07:01:05;;;;;;;6.90;4.30;;;12.30;60.10;;;;;;5025516;28;20435;-82
2023/02/04 07:03:31;;;;;;;7.28;4.68;;;12.30;60.10;;;;;;5045842;28;20072;-80
2023/02/04 07:05:58;;;;;;;10.98;5.45;;;12.30;60.10;;;;;;5047827;28;20029;-80
2023/02/04 07:08:24;;;;;;;6.18;4.22;;;12.30;60.00;;;;;;5047539;28;20028;-81
2023/02/04 07:10:50;;;;;;;7.35;5.55;;;12.30;59.90;;;;;;5046710;28;20511;-84
2023/02/04 07:13:15;;;;;;;6.10;5.07;;;12.30;59.90;;;;;;5029192;28;20032;-79
2023/02/04 07:15:41;;;;;;;7.15;4.93;;;12.30;59.90;;;;;;5042183;28;20032;-81
2023/02/04 07:18:07;;;;;;;7.15;5.50;;;12.30;59.70;;;;;;5045093;28;20107;-78
2023/02/04 07:20:33;;;;;;;8.85;5.20;;;12.30;59.80;;;;;;5043903;28;20041;-82
2023/02/04 07:22:59;;;;;;;9.05;5.57;;;12.30;59.90;;;;;;5031060;28;20086;-82
2023/02/04 07:25:25;;;;;;;9.98;5.00;;;12.30;60.10;;;;;;5030708;28;20036;-82
2023/02/04 07:27:51;;;;;;;8.80;5.43;;;12.30;60.30;;;;;;5031686;28;20561;-82
2023/02/04 07:30:17;;;;;;;6.80;4.63;;;12.40;60.90;;;;;;5047924;28;20075;-84
2023/02/04 07:32:43;;;;;;;8.25;5.20;;;12.40;61.30;;;;;;5044542;28;20053;-80
2023/02/04 07:35:11;;;;;;;8.43;5.03;;;12.30;61.00;;;;;;5046385;28;20029;-83
2023/02/04 07:37:37;;;;;;;7.10;5.20;;;12.40;60.90;;;;;;5043322;28;20036;-81
2023/02/04 07:40:04;;;;;;;9.80;5.93;;;12.30;61.00;;;;;;5044294;28;20037;-82
2023/02/04 07:42:30;;;;;;;8.75;5.07;;;12.40;61.20;;;;;;5046345;28;20028;-81
2023/02/04 07:45:05;;;;;;;8.38;5.28;;;12.40;61.40;;;;;;5041836;28;20114;-80
2023/02/04 07:47:31;;;;;;;11.52;5.65;;;12.40;61.50;;;;;;5043236;28;20032;-81
2023/02/04 07:49:56;;;;;;;9.95;5.70;;;12.40;61.60;;;;;;5042736;28;20051;-81
2023/02/04 07:52:25;;;;;;;9.38;5.43;;;12.40;61.40;;;;;;5043509;28;20051;-81
2023/02/04 07:54:51;;;;;;;9.02;4.88;;;12.40;61.30;;;;;;5046563;28;20033;-80
2023/02/04 07:57:18;;;;;;;7.88;5.10;;;12.40;61.10;;;;;;5042792;28;20087;-81
2023/02/04 07:59:44;;;;;;;7.55;4.65;;;12.40;60.80;;;;;;5043292;28;20116;-80
2023/02/04 08:02:10;;;;;;;6.22;4.75;;;12.40;60.60;;;;;;5043273;28;20119;-81
2023/02/04 08:04:39;;;;;;;8.43;4.90;;;12.50;60.60;;;;;;5044018;28;20167;-81
2023/02/04 08:07:05;;;;;;;6.85;4.63;;;12.40;60.20;;;;;;5029443;28;20071;-82
2023/02/04 08:09:31;;;;;;;6.97;4.07;;;12.40;60.00;;;;;;5041902;28;20053;-82
2023/02/04 08:11:58;;;;;;;6.93;4.05;;;12.50;59.80;;;;;;5046478;28;20029;-80
2023/02/04 08:14:25;;;;;;;5.63;4.00;;;12.50;59.70;;;;;;5046874;28;20082;-79
2023/02/04 08:16:51;;;;;;;4.47;3.20;;;12.40;59.50;;;;;;5041409;28;20128;-81
2023/02/04 08:19:19;;;;;;;7.68;3.63;;;12.50;59.50;;;;;;5043620;28;20559;-80
2023/02/04 08:21:46;;;;;;;5.82;4.03;;;12.40;59.40;;;;;;5043747;28;20147;-80
2023/02/04 08:24:14;;;;;;;5.82;4.15;;;12.50;59.40;;;;;;5041172;28;20033;-79
2023/02/04 08:26:41;;;;;;;4.93;3.70;;;12.50;59.30;;;;;;5042408;28;20561;-79
2023/02/04 08:29:08;;;;;;;8.10;3.95;;;12.50;59.20;;;;;;5040581;28;20028;-79
2023/02/04 08:31:38;;;;;;;5.78;4.05;;;12.50;59.10;;;;;;5044997;28;20036;-81
2023/02/04 08:34:04;;;;;;;6.22;3.88;;;12.50;59.00;;;;;;5044940;28;20091;-87
2023/02/04 08:36:31;;;;;;;8.20;4.25;;;12.50;58.80;;;;;;5015853;28;20399;-90
2023/02/04 08:38:57;;;;;;;8.18;5.28;;;12.50;58.70;;;;;;5043854;28;20414;-90
2023/02/04 08:41:23;;;;;;;9.95;5.38;;;12.50;58.80;;;;;;5043067;28;20064;-90
2023/02/04 08:43:49;;;;;;;9.13;5.63;;;12.50;58.70;;;;;;5042525;28;20651;-90
2023/02/04 08:46:15;;;;;;;9.93;5.60;;;12.50;58.60;;;;;;5025803;28;20060;-89
2023/02/04 08:48:41;;;;;;;7.93;6.13;;;12.60;58.80;;;;;;5041454;28;20116;-89
2023/02/04 08:51:07;;;;;;;10.30;6.53;;;12.50;58.60;;;;;;5029391;28;20049;-91
2023/02/04 08:53:33;;;;;;;11.00;6.43;;;12.50;58.60;;;;;;5045706;28;20033;-89
2023/02/04 08:55:58;;;;;;;9.38;5.70;;;12.50;58.60;;;;;;5030590;28;20098;-85
2023/02/04 08:58:24;;;;;;;9.05;6.28;;;12.60;58.60;;;;;;5027568;28;20036;-87
2023/02/04 09:00:50;;;;;;;12.25;5.78;;;12.50;58.50;;;;;;5029928;28;20024;-88
2023/02/04 09:03:16;;;;;;;9.80;6.00;;;12.60;58.40;;;;;;5027430;28;20029;-90
2023/02/04 09:05:42;;;;;;;8.98;5.97;;;12.60;58.30;;;;;;5016189;28;20031;-90
2023/02/04 09:08:08;;;;;;;9.32;5.43;;;12.60;58.00;;;;;;5042634;28;20534;-91
2023/02/04 09:10:34;;;;;;;8.35;5.60;;;12.60;57.90;;;;;;5023881;28;20029;-90
2023/02/04 09:13:00;;;;;;;9.43;5.63;;;12.60;57.70;;;;;;5028772;28;20061;-91
2023/02/04 09:15:26;;;;;;;8.52;5.55;;;12.60;57.60;;;;;;5042154;28;20021;-91
2023/02/04 09:17:54;;;;;;;8.40;5.63;;;12.60;57.60;;;;;;5045671;28;20033;-86
2023/02/04 09:20:20;;;;;;;8.00;4.88;;;12.60;57.50;;;;;;5028278;28;20032;-90
2023/02/04 09:22:49;;;;;;;5.82;4.20;;;12.60;57.30;;;;;;5012469;28;20024;-88
2023/02/04 09:25:15;;;;;;;6.03;4.15;;;12.60;57.30;;;;;;5044138;28;20225;-88
2023/02/04 09:27:41;;;;;;;5.07;3.90;;;12.60;57.60;;;;;;5012377;28;20024;-84
2023/02/04 09:30:07;;;;;;;5.07;4.05;;;12.60;57.00;;;;;;5040936;28;20025;-88
2023/02/04 09:32:33;;;;;;;6.05;4.03;;;12.60;56.90;;;;;;5045083;28;20064;-88
2023/02/04 09:34:59;;;;;;;6.25;4.25;;;12.60;56.70;;;;;;5025987;28;20064;-88
2023/02/04 09:37:25;;;;;;;7.15;5.10;;;12.60;56.60;;;;;;5042080;28;20028;-88
2023/02/04 09:39:52;;;;;;;10.77;6.55;;;12.60;56.60;;;;;;5042709;28;20049;-88
2023/02/04 09:42:20;;;;;;;10.43;6.43;;;12.60;56.80;;;;;;5043759;28;20564;-90
2023/02/04 09:44:46;;;;;;;10.70;7.40;;;12.70;57.00;;;;;;5026725;28;20040;-90
2023/02/04 09:47:14;;;;;;;14.52;8.50;;;12.70;57.10;;;;;;5029042;28;20083;-86
2023/02/04 09:49:45;;;;;;;16.17;8.30;;;12.70;57.20;;;;;;5028665;28;20427;-87
2023/02/04 09:52:15;;;;;;;14.90;9.25;;;12.70;57.30;;;;;;5045114;28;20571;-85
2023/02/04 09:54:41;;;;;;;16.63;9.70;;;12.70;57.40;;;;;;5042050;28;20051;-85
2023/02/04 09:57:16;;;;;;;18.45;11.10;;;12.70;57.60;;;;;;5026975;28;20536;-90
2023/02/04 09:59:45;;;;;;;19.95;10.02;;;12.70;57.70;;;;;;5024176;28;20121;-91
2023/02/04 10:02:29;;;;;;;21.48;11.90;;;12.70;57.70;;;;;;5046240;28;20033;-89
2023/02/04 10:04:56;;;;;;;18.83;11.88;;;12.70;57.90;;;;;;5007890;28;20045;-90
2023/02/04 10:07:25;;;;;;;21.83;13.02;;;12.70;57.90;;;;;;5025085;28;20037;-92
2023/02/04 10:09:53;;;;;;;20.27;12.93;;;12.70;57.90;;;;;;5037947;28;20076;-86
2023/02/04 10:12:19;;;;;;;21.92;13.85;;;12.70;57.90;;;;;;5047726;28;20173;-84
2023/02/04 10:14:45;;;;;;;22.23;14.80;;;12.70;58.00;;;;;;5049339;28;20040;-82
2023/02/04 10:17:14;;;;;;;22.52;13.88;;;12.70;58.10;;;;;;5049232;28;20083;-88
2023/02/04 10:19:40;;;;;;;23.70;14.43;;;12.70;58.60;;;;;;5031060;28;20039;-86
2023/02/04 10:22:16;;;;;;;23.83;14.43;;;12.70;59.00;;;;;;5048598;28;20444;-80
2023/02/04 10:24:42;;;;;;;24.58;14.98;;;12.80;59.00;;;;;;5039209;28;20033;-78
2023/02/04 10:27:10;;;;;;;27.58;15.48;;;12.80;59.00;;;;;;5048626;28;20044;-82
2023/02/04 10:29:37;;;;;;;25.95;16.00;;;12.70;59.00;;;;;;5040827;28;20037;-81
2023/02/04 10:32:03;;;;;;;25.25;14.88;;;12.80;59.00;;;;;;5043427;28;20021;-78
2023/02/04 10:34:38;;;;;;;22.63;14.40;;;12.80;59.10;;;;;;5037283;28;20029;-79
2023/02/04 10:37:30;;;;;;;22.75;13.43;;;12.70;59.10;;;;;;5040023;28;20487;-80
2023/02/04 10:39:56;;;;;;;17.60;11.15;;;12.80;59.20;;;;;;5002220;28;20187;-80
2023/02/04 10:42:25;;;;;;;17.80;11.52;;;12.80;59.10;;;;;;5038549;28;20037;-79
2023/02/04 10:44:51;;;;;;;16.30;10.07;;;12.80;58.90;;;;;;5037725;28;20029;-79
2023/02/04 10:47:29;;;;;;;16.08;10.85;;;12.80;58.80;;;;;;5037583;28;20040;-83
2023/02/04 10:50:14;;;;;;;15.60;9.80;;;12.80;58.80;;;;;;5036692;28;20045;-85
2023/02/04 10:52:48;;;;;;;21.52;10.98;;;12.80;58.90;;;;;;5009786;28;20607;-87
2023/02/04 10:55:18;;;;;;;21.55;10.95;;;12.80;59.00;;;;;;5019404;28;20649;-84
2023/02/04 10:57:47;;;;;;;15.98;10.65;;;12.80;58.90;;;;;;5040117;28;20079;-91
2023/02/04 11:00:24;;;;;;;16.65;9.80;;;12.80;58.90;;;;;;5056606;28;20041;-85
2023/02/04 11:03:15;;;;;;;20.10;9.55;;;12.80;58.80;;;;;;5044305;28;20432;-84
2023/02/04 11:05:41;;;;;;;16.52;10.05;;;12.80;58.70;;;;;;5022309;28;20036;-84
2023/02/04 11:08:36;;;;;;;19.95;10.35;;;12.80;58.60;;;;;;5039899;28;20041;-84
2023/02/04 11:11:27;;;;;;;16.15;9.68;;;12.80;58.60;;;;;;5011674;28;20044;-85
2023/02/04 11:13:54;;;;;;;15.45;9.75;;;12.80;58.60;;;;;;5021321;28;20041;-85
2023/02/04 11:16:23;;;;;;;16.83;9.57;;;12.80;58.60;;;;;;5039870;28;20419;-80
2023/02/04 11:18:54;;;;;;;14.90;9.45;;;12.80;58.60;;;;;;5041275;28;20029;-85
2023/02/04 11:21:41;;;;;;;16.08;9.20;;;12.80;58.50;;;;;;5057349;28;20032;-82
2023/02/04 11:24:10;;;;;;;15.88;9.82;;;12.80;58.60;;;;;;5026940;28;20040;-88
2023/02/04 11:26:40;;;;;;;17.15;9.98;;;12.80;58.60;;;;;;5014165;28;20045;-91
2023/02/04 11:29:24;;;;;;;15.40;9.45;;;12.80;58.50;;;;;;5016878;28;20033;-87
2023/02/04 11:31:49;;;;;;;14.98;9.32;;;12.80;58.60;;;;;;5030050;28;20033;-84
2023/02/04 11:34:17;;;;;;;14.38;8.68;;;12.80;58.80;;;;;;5026452;28;20087;-78
2023/02/04 11:37:03;;;;;;;16.33;9.70;;;12.80;59.70;;;;;;5046507;28;20475;-85
2023/02/04 11:39:37;;;;;;;16.60;9.82;;;12.90;59.40;;;;;;5024947;28;20032;-87
2023/02/04 11:42:04;;;;;;;20.45;10.15;;;12.90;59.80;;;;;;5041578;28;20057;-88
2023/02/04 11:44:32;;;;;;;16.95;9.75;;;12.90;59.80;;;;;;5045985;28;20059;-87
2023/02/04 11:46:59;;;;;;;16.15;9.95;;;12.80;60.60;;;;;;5042651;28;20096;-82
2023/02/04 11:49:26;;;;;;;17.95;10.43;;;12.90;60.30;;;;;;5029551;28;20760;-83
2023/02/04 11:52:07;;;;;;;16.65;9.90;;;12.90;60.50;;;;;;5048388;28;20175;-85
2023/02/04 11:54:35;;;;;;;18.67;10.45;;;12.90;60.70;;;;;;5047130;28;20068;-82
2023/02/04 11:57:01;;;;;;;17.38;10.60;;;12.90;60.70;;;;;;5047711;28;20035;-82
2023/02/04 11:59:27;;;;;;;15.82;9.70;;;12.90;60.80;;;;;;5030567;28;20403;-82
2023/02/04 12:02:17;;;;;;;17.15;9.93;;;12.90;60.70;;;;;;5031461;28;20273;-81
2023/02/04 12:04:51;;;;;;;16.33;9.98;;;12.90;60.60;;;;;;5029505;28;20036;-81
2023/02/04 12:07:25;;;;;;;16.58;10.27;;;12.90;60.50;;;;;;5047951;28;20406;-80
2023/02/04 12:09:52;;;;;;;14.05;9.25;;;12.90;60.50;;;;;;5047583;28;20029;-81
2023/02/04 12:12:29;;;;;;;14.10;8.93;;;12.90;60.40;;;;;;5047464;28;20102;-86
2023/02/04 12:14:58;;;;;;;17.15;8.95;;;12.90;60.50;;;;;;5014806;28;20127;-87
2023/02/04 12:17:24;;;;;;;15.00;9.80;;;12.90;60.50;;;;;;5046813;28;20033;-85
2023/02/04 12:19:50;;;;;;;13.52;8.65;;;12.90;60.50;;;;;;5046749;28;20033;-86
2023/02/04 12:22:16;;;;;;;14.38;8.85;;;12.90;60.70;;;;;;5050026;28;20030;-85
2023/02/04 12:24:42;;;;;;;18.35;9.38;;;12.90;60.70;;;;;;5032182;28;20050;-85
2023/02/04 12:27:08;;;;;;;15.00;9.50;;;12.90;60.80;;;;;;5034219;28;20243;-88
2023/02/04 12:29:34;;;;;;;15.75;9.77;;;12.90;60.80;;;;;;5044612;28;20044;-90
2023/02/04 12:32:00;;;;;;;16.20;9.15;;;12.90;60.80;;;;;;5065777;28;20376;-87
2023/02/04 12:34:27;;;;;;;15.13;9.45;;;12.90;60.90;;;;;;5041994;28;20025;-80
2023/02/04 12:36:52;;;;;;;16.30;9.48;;;12.90;60.90;;;;;;5046949;28;20033;-80
2023/02/04 12:39:18;;;;;;;15.13;9.05;;;12.90;60.70;;;;;;5040844;28;20051;-77
2023/02/04 12:41:44;;;;;;;16.30;9.75;;;12.90;60.70;;;;;;5040084;28;20041;-76
2023/02/04 12:44:10;;;;;;;16.60;9.57;;;12.90;60.90;;;;;;5042042;28;20467;-77
2023/02/04 12:46:36;;;;;;;15.70;8.98;;;12.90;61.10;;;;;;5038276;28;20537;-76